createdAt,value
2022-12-01T00:02:18.490Z,5.71
2022-12-01T00:04:45.237Z,5.73
2022-12-01T00:07:11.896Z,5.77
2022-12-01T00:09:57.186Z,5.75
2022-12-01T00:12:23.972Z,5.77
2022-12-01T00:14:55.105Z,5.77
2022-12-01T00:17:22.213Z,5.79
2022-12-01T00:19:49.065Z,5.82
2022-12-01T00:22:15.917Z,5.88
2022-12-01T00:24:42.566Z,5.82
2022-12-01T00:27:09.223Z,5.86
2022-12-01T00:29:35.885Z,5.83
2022-12-01T00:32:06.451Z,5.84
2022-12-01T00:34:33.119Z,5.82
2022-12-01T00:37:00.543Z,5.81
2022-12-01T00:39:27.280Z,5.82
2022-12-01T00:41:54.133Z,5.80
2022-12-01T00:44:20.785Z,5.84
2022-12-01T00:46:47.445Z,5.79
2022-12-01T00:49:14.518Z,5.80
2022-12-01T00:51:41.460Z,5.80
2022-12-01T00:54:08.139Z,5.79
2022-12-01T00:56:34.792Z,5.82
2022-12-01T00:59:01.444Z,5.84
2022-12-01T01:01:28.166Z,5.80
2022-12-01T01:03:54.861Z,5.79
2022-12-01T01:06:21.536Z,5.74
2022-12-01T01:08:48.168Z,5.77
2022-12-01T01:11:14.827Z,5.76
2022-12-01T01:13:41.600Z,5.71
2022-12-01T01:16:14.275Z,5.70
2022-12-01T01:18:42.060Z,5.62
2022-12-01T01:21:11.924Z,5.60
2022-12-01T01:23:38.641Z,5.57
2022-12-01T01:26:14.936Z,5.56
2022-12-01T01:28:42.072Z,5.45
2022-12-01T01:31:10.965Z,5.40
2022-12-01T01:33:38.242Z,5.35
2022-12-01T01:36:06.343Z,5.21
2022-12-01T01:38:34.195Z,5.27
2022-12-01T01:41:01.710Z,5.25
2022-12-01T01:43:53.164Z,5.27
2022-12-01T01:46:28.562Z,5.19
2022-12-01T01:48:57.065Z,5.19
2022-12-01T01:51:34.092Z,5.17
2022-12-01T01:54:24.619Z,5.16
2022-12-01T01:56:52.402Z,5.16
2022-12-01T01:59:24.613Z,5.09
2022-12-01T02:01:59.896Z,5.09
2022-12-01T02:04:27.099Z,5.17
2022-12-01T02:06:53.864Z,5.13
2022-12-01T02:09:20.682Z,5.20
2022-12-01T02:12:12.123Z,5.20
2022-12-01T02:14:57.247Z,5.21
2022-12-01T02:17:45.516Z,5.28
2022-12-01T02:20:40.909Z,5.31
2022-12-01T02:23:29.255Z,5.30
2022-12-01T02:25:58.715Z,5.28
2022-12-01T02:28:34.336Z,5.27
2022-12-01T02:31:22.846Z,5.28
2022-12-01T02:33:59.411Z,5.30
2022-12-01T02:36:28.999Z,5.30
2022-12-01T02:39:04.234Z,5.33
2022-12-01T02:41:36.792Z,5.35
2022-12-01T02:44:17.097Z,5.36
2022-12-01T02:47:01.268Z,5.37
2022-12-01T02:49:35.702Z,5.36
2022-12-01T02:52:05.586Z,5.35
2022-12-01T02:54:33.555Z,5.41
2022-12-01T02:57:00.366Z,5.42
2022-12-01T02:59:27.037Z,5.44
2022-12-01T03:02:17.152Z,5.39
2022-12-01T03:04:52.865Z,5.43
2022-12-01T03:07:33.418Z,5.42
2022-12-01T03:10:40.794Z,5.43
2022-12-01T03:13:15.963Z,5.42
2022-12-01T03:16:05.816Z,5.49
2022-12-01T03:18:54.201Z,5.44
2022-12-01T03:21:35.854Z,5.46
2022-12-01T03:24:06.759Z,5.44
2022-12-01T03:26:35.577Z,5.47
2022-12-01T03:29:22.495Z,5.46
2022-12-01T03:31:53.450Z,5.44
2022-12-01T03:34:34.612Z,5.46
2022-12-01T03:37:05.422Z,5.44
2022-12-01T03:39:33.571Z,5.41
2022-12-01T03:42:05.854Z,5.45
2022-12-01T03:44:41.787Z,5.46
2022-12-01T03:47:15.823Z,5.44
2022-12-01T03:49:43.226Z,5.40
2022-12-01T03:52:37.062Z,5.39
2022-12-01T03:55:29.617Z,5.41
2022-12-01T03:58:11.396Z,5.47
2022-12-01T04:00:38.660Z,5.39
2022-12-01T04:03:05.776Z,5.41
2022-12-01T04:05:34.312Z,5.44
2022-12-01T04:08:01.555Z,5.46
2022-12-01T04:10:28.252Z,5.49
2022-12-01T04:12:59.378Z,5.44
2022-12-01T04:15:27.301Z,5.43
2022-12-01T04:17:54.038Z,5.40
2022-12-01T04:20:21.654Z,5.43
2022-12-01T04:22:48.742Z,5.48
2022-12-01T04:25:15.463Z,5.38
2022-12-01T04:27:42.228Z,5.39
2022-12-01T04:30:09.711Z,5.42
2022-12-01T04:32:40.527Z,5.41
2022-12-01T04:35:08.810Z,5.41
2022-12-01T04:37:35.565Z,5.42
2022-12-01T04:40:02.227Z,5.38
2022-12-01T04:42:28.902Z,5.42
2022-12-01T04:44:55.659Z,5.41
2022-12-01T04:47:22.332Z,5.42
2022-12-01T04:49:49.396Z,5.38
2022-12-01T04:52:16.276Z,5.41
2022-12-01T04:54:43.287Z,5.33
2022-12-01T04:57:09.987Z,5.42
2022-12-01T04:59:36.716Z,5.42
2022-12-01T05:02:04.337Z,5.39
2022-12-01T05:04:32.675Z,5.38
2022-12-01T05:06:59.435Z,5.41
2022-12-01T05:09:26.103Z,5.36
2022-12-01T05:11:52.765Z,5.38
2022-12-01T05:14:19.494Z,5.31
2022-12-01T05:16:46.215Z,5.34
2022-12-01T05:19:31.447Z,5.35
2022-12-01T05:21:58.148Z,5.37
2022-12-01T05:24:24.835Z,5.35
2022-12-01T05:26:51.648Z,5.37
2022-12-01T05:29:18.363Z,5.40
2022-12-01T05:31:46.412Z,5.41
2022-12-01T05:34:13.418Z,5.37
2022-12-01T05:36:40.108Z,5.39
2022-12-01T05:39:06.775Z,5.39
2022-12-01T05:41:33.501Z,5.42
2022-12-01T05:44:00.255Z,5.40
2022-12-01T05:46:27.004Z,5.36
2022-12-01T05:48:53.747Z,5.43
2022-12-01T05:51:20.521Z,5.42
2022-12-01T05:53:47.693Z,5.40
2022-12-01T05:56:14.427Z,5.38
2022-12-01T05:58:41.086Z,5.41
2022-12-01T06:01:08.407Z,5.46
2022-12-01T06:03:35.280Z,5.36
2022-12-01T06:06:02.273Z,5.44
2022-12-01T06:08:29.027Z,5.36
2022-12-01T06:10:55.685Z,5.35
2022-12-01T06:13:22.555Z,5.37
2022-12-01T06:15:57.572Z,5.40
2022-12-01T06:18:25.292Z,5.45
2022-12-01T06:20:52.363Z,5.40
2022-12-01T06:23:19.228Z,5.36
2022-12-01T06:25:45.922Z,5.30
2022-12-01T06:28:12.683Z,5.26
2022-12-01T06:30:39.419Z,5.32
2022-12-01T06:33:06.587Z,5.33
2022-12-01T06:35:33.480Z,5.32
2022-12-01T06:38:00.282Z,5.25
2022-12-01T06:40:27.733Z,5.35
2022-12-01T06:42:54.451Z,5.36
2022-12-01T06:45:21.209Z,5.34
2022-12-01T06:47:48.628Z,5.33
2022-12-01T06:50:15.420Z,5.33
2022-12-01T06:52:42.133Z,5.31
2022-12-01T06:55:09.180Z,5.33
2022-12-01T06:57:36.064Z,5.35
2022-12-01T07:00:04.414Z,5.32
2022-12-01T07:02:31.562Z,5.34
2022-12-01T07:04:58.254Z,5.33
2022-12-01T07:07:24.935Z,5.35
2022-12-01T07:09:51.898Z,5.30
2022-12-01T07:12:18.866Z,5.28
2022-12-01T07:14:45.517Z,5.29
2022-12-01T07:17:12.209Z,5.32
2022-12-01T07:19:39.357Z,5.31
2022-12-01T07:22:06.063Z,5.32
2022-12-01T07:24:32.730Z,5.28
2022-12-01T07:26:59.485Z,5.38
2022-12-01T07:29:26.128Z,5.32
2022-12-01T07:31:52.864Z,5.35
2022-12-01T07:34:19.564Z,5.38
2022-12-01T07:36:46.206Z,5.39
2022-12-01T07:39:12.968Z,5.38
2022-12-01T07:41:39.666Z,5.38
2022-12-01T07:44:06.320Z,5.40
2022-12-01T07:46:33.207Z,5.36
2022-12-01T07:49:00.503Z,5.39
2022-12-01T07:51:27.455Z,5.35
2022-12-01T07:53:54.955Z,5.34
2022-12-01T07:56:22.990Z,5.32
2022-12-01T07:58:49.708Z,5.35
2022-12-01T08:01:19.623Z,5.34
2022-12-01T08:03:52.085Z,5.34
2022-12-01T08:06:19.611Z,5.36
2022-12-01T08:08:46.731Z,5.33
2022-12-01T08:11:17.963Z,5.36
2022-12-01T08:13:45.029Z,5.33
2022-12-01T08:16:17.060Z,5.31
2022-12-01T08:18:44.723Z,5.34
2022-12-01T08:21:13.433Z,5.37
2022-12-01T08:23:41.707Z,5.35
2022-12-01T08:26:12.909Z,5.39
2022-12-01T08:28:40.109Z,5.32
2022-12-01T08:31:10.696Z,5.42
2022-12-01T08:33:37.502Z,5.41
2022-12-01T08:36:05.580Z,5.41
2022-12-01T08:38:32.627Z,5.40
2022-12-01T08:41:03.099Z,5.43
2022-12-01T08:43:55.841Z,5.41
2022-12-01T08:46:16.824Z,5.47
2022-12-01T08:48:43.803Z,5.47
2022-12-01T08:51:13.578Z,5.52
2022-12-01T08:53:45.513Z,5.52
2022-12-01T08:56:18.951Z,5.48
2022-12-01T08:58:45.910Z,5.47
2022-12-01T09:01:15.167Z,5.47
2022-12-01T09:03:42.963Z,5.52
2022-12-01T09:06:20.778Z,5.52
2022-12-01T09:08:47.763Z,5.57
2022-12-01T09:11:18.977Z,5.57
2022-12-01T09:13:52.938Z,5.60
2022-12-01T09:16:21.502Z,5.58
2022-12-01T09:18:48.760Z,5.58
2022-12-01T09:21:27.093Z,5.60
2022-12-01T09:23:54.427Z,5.64
2022-12-01T09:26:21.407Z,5.62
2022-12-01T09:28:50.090Z,5.60
2022-12-01T09:31:18.595Z,5.62
2022-12-01T09:33:45.581Z,5.68
2022-12-01T09:36:12.473Z,5.74
2022-12-01T09:38:39.931Z,5.74
2022-12-01T09:41:18.845Z,5.74
2022-12-01T09:43:49.499Z,5.74
2022-12-01T09:46:24.558Z,5.83
2022-12-01T09:48:53.527Z,5.85
2022-12-01T09:51:22.426Z,5.80
2022-12-01T09:53:54.182Z,5.86
2022-12-01T09:56:26.320Z,5.88
2022-12-01T09:58:57.474Z,5.89
2022-12-01T10:01:33.661Z,5.92
2022-12-01T10:04:07.911Z,5.99
2022-12-01T10:06:59.627Z,5.83
2022-12-01T10:09:52.472Z,5.95
2022-12-01T10:12:23.894Z,5.99
2022-12-01T10:14:50.883Z,6.03
2022-12-01T10:17:31.630Z,6.04
2022-12-01T10:20:04.480Z,6.07
2022-12-01T10:22:54.519Z,6.09
2022-12-01T10:25:29.073Z,6.15
2022-12-01T10:28:11.187Z,6.11
2022-12-01T10:30:49.225Z,6.20
2022-12-01T10:33:21.889Z,6.29
2022-12-01T10:35:48.648Z,6.25
2022-12-01T10:38:27.703Z,6.30
2022-12-01T10:40:55.571Z,6.34
2022-12-01T10:43:32.992Z,6.41
2022-12-01T10:46:01.760Z,6.39
2022-12-01T10:48:29.277Z,6.38
2022-12-01T10:50:57.555Z,6.40
2022-12-01T10:53:24.294Z,6.38
2022-12-01T10:55:58.273Z,6.48
2022-12-01T10:58:24.919Z,6.46
2022-12-01T11:01:01.690Z,6.53
2022-12-01T11:03:32.388Z,6.56
2022-12-01T11:06:01.244Z,6.58
2022-12-01T11:08:41.215Z,6.59
2022-12-01T11:11:26.298Z,6.63
2022-12-01T11:13:54.311Z,6.56
2022-12-01T11:16:43.444Z,6.59
2022-12-01T11:19:25.141Z,6.64
2022-12-01T11:22:18.705Z,6.56
2022-12-01T11:24:54.490Z,6.68
2022-12-01T11:27:24.482Z,6.56
2022-12-01T11:30:04.930Z,6.69
2022-12-01T11:32:35.475Z,6.60
2022-12-01T11:35:04.541Z,6.55
2022-12-01T11:37:36.043Z,6.59
2022-12-01T11:40:09.460Z,6.60
2022-12-01T11:42:37.508Z,6.67
2022-12-01T11:45:28.855Z,6.60
2022-12-01T11:48:12.838Z,6.59
2022-12-01T11:50:42.257Z,6.67
2022-12-01T11:53:29.287Z,6.64
2022-12-01T11:56:18.107Z,6.48
2022-12-01T11:58:47.411Z,6.53
2022-12-01T12:01:32.467Z,6.58
2022-12-01T12:04:19.665Z,6.59
2022-12-01T12:07:17.673Z,6.52
2022-12-01T12:09:53.484Z,6.58
2022-12-01T12:12:58.673Z,6.58
2022-12-01T12:15:28.409Z,6.59
2022-12-01T12:17:55.136Z,6.55
2022-12-01T12:20:39.482Z,6.62
2022-12-01T12:23:35.468Z,6.57
2022-12-01T12:26:11.193Z,6.63
2022-12-01T12:28:49.723Z,6.57
2022-12-01T12:31:22.548Z,6.55
2022-12-01T12:34:06.940Z,6.54
2022-12-01T12:36:56.478Z,6.62
2022-12-01T12:39:32.498Z,6.53
2022-12-01T12:42:04.000Z,6.49
2022-12-01T12:44:39.560Z,6.52
2022-12-01T12:47:35.327Z,6.51
2022-12-01T12:50:16.044Z,6.57
2022-12-01T12:52:49.066Z,6.62
2022-12-01T12:55:30.799Z,6.47
2022-12-01T12:58:10.924Z,6.41
2022-12-01T13:00:44.149Z,6.53
2022-12-01T13:03:44.334Z,6.56
2022-12-01T13:06:16.312Z,6.51
2022-12-01T13:08:53.138Z,6.50
2022-12-01T13:11:30.856Z,6.53
2022-12-01T13:14:02.204Z,6.47
2022-12-01T13:16:36.407Z,6.55
2022-12-01T13:19:10.763Z,6.54
2022-12-01T13:21:41.516Z,6.47
2022-12-01T13:24:12.372Z,6.42
2022-12-01T13:26:39.931Z,6.42
2022-12-01T13:29:07.871Z,6.41
2022-12-01T13:31:44.108Z,6.41
2022-12-01T13:34:19.224Z,6.51
2022-12-01T13:36:53.980Z,6.41
2022-12-01T13:39:25.091Z,6.40
2022-12-01T13:42:00.574Z,6.50
2022-12-01T13:44:40.904Z,6.39
2022-12-01T13:47:10.764Z,6.43
2022-12-01T13:49:47.362Z,6.35
2022-12-01T13:52:23.580Z,6.41
2022-12-01T13:55:08.318Z,6.43
2022-12-01T13:57:39.020Z,6.50
2022-12-01T14:00:31.936Z,6.38
2022-12-01T14:03:20.201Z,6.35
2022-12-01T14:05:53.411Z,6.40
2022-12-01T14:08:26.177Z,6.38
2022-12-01T14:11:03.609Z,6.29
2022-12-01T14:13:31.761Z,6.37
2022-12-01T14:16:00.870Z,6.34
2022-12-01T14:18:40.389Z,6.35
2022-12-01T14:21:10.521Z,6.33
2022-12-01T14:23:40.148Z,6.27
2022-12-01T14:26:19.307Z,6.31
2022-12-01T14:28:55.272Z,6.24
2022-12-01T14:31:34.769Z,6.21
2022-12-01T14:34:10.367Z,6.15
2022-12-01T14:36:52.700Z,6.15
2022-12-01T14:39:25.181Z,6.19
2022-12-01T14:42:43.944Z,6.15
2022-12-01T14:45:14.092Z,6.12
2022-12-01T14:47:49.902Z,6.05
2022-12-01T14:50:34.675Z,6.08
2022-12-01T14:53:14.472Z,6.15
2022-12-01T14:55:43.731Z,6.12
2022-12-01T14:58:20.332Z,6.09
2022-12-01T15:01:13.604Z,6.08
2022-12-01T15:03:54.672Z,6.08
2022-12-01T15:06:24.691Z,6.13
2022-12-01T15:12:02.465Z,6.00
2022-12-01T15:14:38.570Z,6.00
2022-12-01T15:17:07.092Z,5.88
2022-12-01T15:19:38.258Z,5.91
2022-12-01T15:22:08.084Z,5.93
2022-12-01T15:24:34.918Z,5.89
2022-12-01T15:27:04.040Z,5.94
2022-12-01T15:29:44.292Z,5.94
2022-12-01T15:32:16.312Z,5.91
2022-12-01T15:34:45.198Z,5.92
2022-12-01T15:37:14.839Z,5.86
2022-12-01T15:39:46.757Z,5.94
2022-12-01T15:42:25.467Z,5.93
2022-12-01T15:45:21.434Z,5.89
2022-12-01T15:47:49.048Z,5.78
2022-12-01T15:50:33.614Z,5.88
2022-12-01T15:53:03.639Z,5.84
2022-12-01T15:55:32.144Z,5.87
2022-12-01T15:57:59.972Z,5.83
2022-12-01T16:00:27.034Z,5.80
2022-12-01T16:02:56.063Z,5.65
2022-12-01T16:05:33.086Z,5.70
2022-12-01T16:08:17.886Z,5.72
2022-12-01T16:10:45.232Z,5.77
2022-12-01T16:13:35.271Z,5.79
2022-12-01T16:16:23.161Z,5.68
2022-12-01T16:18:59.978Z,5.72
2022-12-01T16:21:27.296Z,5.73
2022-12-01T16:24:02.371Z,5.64
2022-12-01T16:26:29.715Z,5.70
2022-12-01T16:28:57.105Z,5.65
2022-12-01T16:31:25.909Z,5.64
2022-12-01T16:34:13.856Z,5.65
2022-12-01T16:36:50.257Z,5.60
2022-12-01T16:39:17.038Z,5.60
2022-12-01T16:41:44.977Z,5.59
2022-12-01T16:44:28.113Z,5.54
2022-12-01T16:46:55.995Z,5.48
2022-12-01T16:49:23.082Z,5.52
2022-12-01T16:51:55.933Z,5.50
2022-12-01T16:54:23.773Z,5.47
2022-12-01T16:56:51.273Z,5.46
2022-12-01T16:59:17.953Z,5.42
2022-12-01T17:01:44.667Z,5.42
2022-12-01T17:04:11.685Z,5.49
2022-12-01T17:06:38.660Z,5.40
2022-12-01T17:09:05.456Z,5.46
2022-12-01T17:11:32.527Z,5.52
2022-12-01T17:13:59.280Z,5.50
2022-12-01T17:16:26.188Z,5.51
2022-12-01T17:18:52.916Z,5.45
2022-12-01T17:21:19.582Z,5.50
2022-12-01T17:23:46.524Z,5.46
2022-12-01T17:26:15.515Z,5.48
2022-12-01T17:28:42.259Z,5.46
2022-12-01T17:31:09.487Z,5.52
2022-12-01T17:33:36.776Z,5.51
2022-12-01T17:36:21.920Z,5.41
2022-12-01T17:38:49.034Z,5.49
2022-12-01T17:41:22.143Z,5.45
2022-12-01T17:43:49.172Z,5.42
2022-12-01T17:46:16.009Z,5.44
2022-12-01T17:48:45.087Z,5.45
2022-12-01T17:51:13.467Z,5.51
2022-12-01T17:53:40.527Z,5.47
2022-12-01T17:56:12.095Z,5.42
2022-12-01T17:58:39.254Z,5.46
2022-12-01T18:01:07.428Z,5.41
2022-12-01T18:03:34.086Z,5.42
2022-12-01T18:06:02.408Z,5.44
2022-12-01T18:08:30.296Z,5.45
2022-12-01T18:11:02.395Z,5.49
2022-12-01T18:13:29.374Z,5.39
2022-12-01T18:15:56.115Z,5.40
2022-12-01T18:18:22.836Z,5.43
2022-12-01T18:20:49.513Z,5.37
2022-12-01T18:23:16.176Z,5.42
2022-12-01T18:25:42.869Z,5.45
2022-12-01T18:28:11.252Z,5.41
2022-12-01T18:30:38.893Z,5.40
2022-12-01T18:33:08.808Z,5.40
2022-12-01T18:35:35.480Z,5.31
2022-12-01T18:38:02.194Z,5.27
2022-12-01T18:40:28.885Z,5.24
2022-12-01T18:42:55.606Z,5.28
2022-12-01T18:45:22.278Z,5.25
2022-12-01T18:47:49.109Z,5.22
2022-12-01T18:50:15.863Z,5.25
2022-12-01T18:52:42.783Z,5.30
2022-12-01T18:55:09.818Z,5.28
2022-12-01T18:57:36.526Z,5.22
2022-12-01T19:00:06.216Z,5.22
2022-12-01T19:02:32.969Z,5.24
2022-12-01T19:05:00.003Z,5.23
2022-12-01T19:07:29.722Z,5.17
2022-12-01T19:09:56.988Z,5.17
2022-12-01T19:12:23.655Z,5.19
2022-12-01T19:14:53.138Z,5.19
2022-12-01T19:17:20.159Z,5.18
2022-12-01T19:19:46.963Z,5.15
2022-12-01T19:22:13.631Z,5.19
2022-12-01T19:24:40.295Z,5.22
2022-12-01T19:27:07.004Z,5.21
2022-12-01T19:29:33.852Z,5.20
2022-12-01T19:32:00.804Z,5.21
2022-12-01T19:34:27.640Z,5.17
2022-12-01T19:36:54.565Z,5.18
2022-12-01T19:39:21.430Z,5.21
2022-12-01T19:41:48.384Z,5.19
2022-12-01T19:44:15.086Z,5.15
2022-12-01T19:46:41.904Z,5.15
2022-12-01T19:49:10.383Z,5.16
2022-12-01T19:51:39.127Z,5.22
2022-12-01T19:54:08.541Z,5.19
2022-12-01T19:56:35.226Z,5.10
2022-12-01T19:59:02.007Z,4.99
2022-12-01T20:01:29.114Z,5.05
2022-12-01T20:03:56.177Z,5.04
2022-12-01T20:06:28.325Z,5.06
2022-12-01T20:08:56.988Z,5.10
2022-12-01T20:11:24.264Z,5.11
2022-12-01T20:13:51.779Z,5.08
2022-12-01T20:16:21.743Z,5.08
2022-12-01T20:18:49.022Z,5.12
2022-12-01T20:21:19.503Z,5.08
2022-12-01T20:23:55.495Z,5.05
2022-12-01T20:26:26.150Z,5.04
2022-12-01T20:29:04.927Z,5.01
2022-12-01T20:31:33.057Z,5.01
2022-12-01T20:34:02.075Z,4.99
2022-12-01T20:36:29.071Z,5.14
2022-12-01T20:38:55.838Z,5.02
2022-12-01T20:41:23.062Z,4.99
2022-12-01T20:43:49.997Z,5.00
2022-12-01T20:46:17.166Z,5.02
2022-12-01T20:48:44.399Z,5.01
2022-12-01T20:51:13.126Z,5.02
2022-12-01T20:53:40.172Z,5.04
2022-12-01T20:56:09.037Z,5.04
2022-12-01T20:58:37.927Z,5.07
2022-12-01T21:01:13.079Z,5.06
2022-12-01T21:03:41.204Z,4.99
2022-12-01T21:06:08.508Z,4.97
2022-12-01T21:08:37.823Z,4.92
2022-12-01T21:11:13.656Z,4.98
2022-12-01T21:13:43.203Z,4.95
2022-12-01T21:16:16.044Z,4.88
2022-12-01T21:18:49.768Z,4.85
2022-12-01T21:21:24.836Z,4.88
2022-12-01T21:24:00.748Z,4.77
2022-12-01T21:26:27.467Z,4.89
2022-12-01T21:28:55.952Z,4.86
2022-12-01T21:31:22.680Z,4.86
2022-12-01T21:33:49.840Z,4.92
2022-12-01T21:36:17.565Z,4.84
2022-12-01T21:38:45.162Z,4.93
2022-12-01T21:41:25.339Z,4.91
2022-12-01T21:43:52.373Z,4.89
2022-12-01T21:46:19.151Z,4.94
2022-12-01T21:48:48.678Z,4.93
2022-12-01T21:51:19.364Z,4.97
2022-12-01T21:53:47.578Z,4.94
2022-12-01T21:56:27.639Z,4.88
2022-12-01T21:58:58.504Z,4.92
2022-12-01T22:01:30.426Z,4.92
2022-12-01T22:04:02.066Z,4.91
2022-12-01T22:06:40.942Z,4.89
2022-12-01T22:09:33.287Z,4.92
2022-12-01T22:12:11.168Z,4.92
2022-12-01T22:14:38.111Z,4.93
2022-12-01T22:17:08.045Z,4.93
2022-12-01T22:19:38.421Z,4.94
2022-12-01T22:22:11.133Z,4.99
2022-12-01T22:24:40.817Z,4.94
2022-12-01T22:27:25.776Z,4.96
2022-12-01T22:29:57.463Z,4.94
2022-12-01T22:32:29.390Z,4.93
2022-12-01T22:34:59.144Z,4.99
2022-12-01T22:37:35.684Z,4.97
2022-12-01T22:40:02.495Z,4.99
2022-12-01T22:42:29.312Z,4.95
2022-12-01T22:44:59.903Z,4.93
2022-12-01T22:47:28.984Z,4.86
2022-12-01T22:49:56.065Z,4.89
2022-12-01T22:52:28.536Z,4.91
2022-12-01T22:54:55.323Z,4.87
2022-12-01T22:57:33.451Z,4.81
2022-12-01T23:00:17.806Z,4.89
2022-12-01T23:02:44.774Z,4.90
2022-12-01T23:05:19.071Z,4.88
2022-12-01T23:07:46.098Z,4.87
2022-12-01T23:10:20.251Z,4.91
2022-12-01T23:12:49.367Z,4.77
2022-12-01T23:15:34.035Z,4.67
2022-12-01T23:18:16.112Z,4.76
2022-12-01T23:20:44.418Z,4.73
2022-12-01T23:23:16.099Z,4.71
2022-12-01T23:25:44.451Z,4.63
2022-12-01T23:28:12.288Z,4.62
2022-12-01T23:30:41.282Z,4.60
2022-12-01T23:33:22.967Z,4.63
2022-12-01T23:36:14.874Z,4.59
2022-12-01T23:38:43.512Z,4.57
2022-12-01T23:41:25.451Z,4.59
2022-12-01T23:44:01.853Z,4.56
2022-12-01T23:46:28.668Z,4.61
2022-12-01T23:48:56.784Z,4.57
2022-12-01T23:51:24.650Z,4.60
2022-12-01T23:53:52.759Z,4.61
2022-12-01T23:56:21.582Z,4.66
2022-12-01T23:58:48.314Z,4.65
